sensor_id;sensor_type;location;lat;lon;timestamp;P1;P2;P0
72918;PMS7003;68407;55.694;26.994;2023-04-24T00:01:13;3.9;3.3;2.9
72918;PMS7003;68407;55.694;26.994;2023-04-24T00:06:55;3.6;3.3;2.8
72918;PMS7003;68407;55.694;26.994;2023-04-24T00:11:43;4.1;3.6;3.1
72918;PMS7003;68407;55.694;26.994;2023-04-24T00:16:25;3.9;3.4;2.8
72918;PMS7003;68407;55.694;26.994;2023-04-24T00:21:13;3.8;3.2;2.6
72918;PMS7003;68407;55.694;26.994;2023-04-24T00:26:57;4.5;3.7;3
72918;PMS7003;68407;55.694;26.994;2023-04-24T00:31:13;4.3;3.8;3.2
72918;PMS7003;68407;55.694;26.994;2023-04-24T00:36:45;5.1;3.6;3.3
72918;PMS7003;68407;55.694;26.994;2023-04-24T00:41:55;4.9;3.9;3.2
72918;PMS7003;68407;55.694;26.994;2023-04-24T00:46:23;4.5;4.1;3.4
72918;PMS7003;68407;55.694;26.994;2023-04-24T00:51:13;3.8;3;2.4
72918;PMS7003;68407;55.694;26.994;2023-04-24T00:56:23;4.1;3.6;3.1
72918;PMS7003;68407;55.694;26.994;2023-04-24T01:01:25;4.5;3.9;3.2
72918;PMS7003;68407;55.694;26.994;2023-04-24T01:06:47;5.1;4.1;3.6
72918;PMS7003;68407;55.694;26.994;2023-04-24T01:11:23;4.6;3.7;3.3
72918;PMS7003;68407;55.694;26.994;2023-04-24T01:16:25;4.4;3.5;3
72918;PMS7003;68407;55.694;26.994;2023-04-24T01:21:43;4.6;3.8;3.3
72918;PMS7003;68407;55.694;26.994;2023-04-24T01:26:55;4.1;3.4;2.9
72918;PMS7003;68407;55.694;26.994;2023-04-24T01:31:19;5;4.3;3.7
72918;PMS7003;68407;55.694;26.994;2023-04-24T01:36:31;4.4;3.9;3.3
72918;PMS7003;68407;55.694;26.994;2023-04-24T01:41:23;4.5;4;3.3
72918;PMS7003;68407;55.694;26.994;2023-04-24T01:46:55;4.5;4.1;3.6
72918;PMS7003;68407;55.694;26.994;2023-04-24T01:51:47;4.6;4;3.5
72918;PMS7003;68407;55.694;26.994;2023-04-24T01:56:31;4.3;3.7;3.2
72918;PMS7003;68407;55.694;26.994;2023-04-24T02:01:55;4.8;4.3;3.6
72918;PMS7003;68407;55.694;26.994;2023-04-24T02:06:35;4.8;3.9;3.3
72918;PMS7003;68407;55.694;26.994;2023-04-24T02:11:13;4.7;3.5;3.1
72918;PMS7003;68407;55.694;26.994;2023-04-24T02:16:13;4.7;4.2;3.6
72918;PMS7003;68407;55.694;26.994;2023-04-24T02:21:55;4.6;4.1;3.6
72918;PMS7003;68407;55.694;26.994;2023-04-24T02:26:13;4.3;3.4;3
72918;PMS7003;68407;55.694;26.994;2023-04-24T02:31:53;4.7;3.9;3.3
72918;PMS7003;68407;55.694;26.994;2023-04-24T02:36:57;4.1;3.3;2.8
72918;PMS7003;68407;55.694;26.994;2023-04-24T02:41:13;4.4;3.6;3.1
72918;PMS7003;68407;55.694;26.994;2023-04-24T02:46:35;5;4.1;3.6
72918;PMS7003;68407;55.694;26.994;2023-04-24T02:51:41;3.7;2.9;2.2
72918;PMS7003;68407;55.694;26.994;2023-04-24T02:56:43;4.7;4.1;3.4
72918;PMS7003;68407;55.694;26.994;2023-04-24T03:01:47;4.3;3.7;3.3
72918;PMS7003;68407;55.694;26.994;2023-04-24T03:06:25;4.2;3.5;2.9
72918;PMS7003;68407;55.694;26.994;2023-04-24T03:11:57;3.8;3;2.5
72918;PMS7003;68407;55.694;26.994;2023-04-24T03:16:43;4.6;3.8;3.2
72918;PMS7003;68407;55.694;26.994;2023-04-24T03:21:23;3.8;3.4;2.9
72918;PMS7003;68407;55.694;26.994;2023-04-24T03:26:13;4.4;3.6;3.2
72918;PMS7003;68407;55.694;26.994;2023-04-24T03:31:55;4;3.1;2.6
72918;PMS7003;68407;55.694;26.994;2023-04-24T03:36:35;3.9;3;2.7
72918;PMS7003;68407;55.694;26.994;2023-04-24T03:41:43;3.6;2.8;2.6
72918;PMS7003;68407;55.694;26.994;2023-04-24T03:46:43;3.2;2.9;2.3
72918;PMS7003;68407;55.694;26.994;2023-04-24T03:51:23;3.6;3;2.4
72918;PMS7003;68407;55.694;26.994;2023-04-24T03:56:43;3.8;3.2;2.8
72918;PMS7003;68407;55.694;26.994;2023-04-24T04:01:35;4.7;3.8;3.1
72918;PMS7003;68407;55.694;26.994;2023-04-24T04:06:13;3.8;3.3;2.9
72918;PMS7003;68407;55.694;26.994;2023-04-24T04:11:47;4.6;3.6;3.1
72918;PMS7003;68407;55.694;26.994;2023-04-24T04:16:55;2.6;2.3;1.9
72918;PMS7003;68407;55.694;26.994;2023-04-24T04:21:13;3.7;2.8;2.3
72918;PMS7003;68407;55.694;26.994;2023-04-24T04:26:43;4.9;3.8;3.3
72918;PMS7003;68407;55.694;26.994;2023-04-24T04:31:47;4.2;3.7;3.1
72918;PMS7003;68407;55.694;26.994;2023-04-24T04:36:31;4.1;3.4;2.9
72918;PMS7003;68407;55.694;26.994;2023-04-24T04:41:35;4;3.4;2.9
72918;PMS7003;68407;55.694;26.994;2023-04-24T04:46:13;3.3;3.2;2.8
72918;PMS7003;68407;55.694;26.994;2023-04-24T04:51:55;4.1;3.1;2.6
72918;PMS7003;68407;55.694;26.994;2023-04-24T04:56:35;4.2;3.5;2.8
72918;PMS7003;68407;55.694;26.994;2023-04-24T05:01:13;3.3;2.6;2.4
72918;PMS7003;68407;55.694;26.994;2023-04-24T05:06:53;4.2;3.3;2.9
72918;PMS7003;68407;55.694;26.994;2023-04-24T05:11:35;3.1;3;2.7
72918;PMS7003;68407;55.694;26.994;2023-04-24T05:16:19;3.5;2.7;2.3
72918;PMS7003;68407;55.694;26.994;2023-04-24T05:21:13;4;3.5;3
72918;PMS7003;68407;55.694;26.994;2023-04-24T05:26:53;3.3;2.3;1.8
72918;PMS7003;68407;55.694;26.994;2023-04-24T05:31:13;4.3;3.6;3
72918;PMS7003;68407;55.694;26.994;2023-04-24T05:36:55;4.5;3.5;2.9
72918;PMS7003;68407;55.694;26.994;2023-04-24T05:41:53;4.6;3.6;3.1
72918;PMS7003;68407;55.694;26.994;2023-04-24T05:46:13;3.7;2.9;2.5
72918;PMS7003;68407;55.694;26.994;2023-04-24T05:51:33;1.3;1.1;0.9
72918;PMS7003;68407;55.694;26.994;2023-04-24T05:56:37;0.7;0.6;0.5
72918;PMS7003;68407;55.694;26.994;2023-04-24T06:01:43;3.3;2.4;2
72918;PMS7003;68407;55.694;26.994;2023-04-24T06:06:45;6.8;6.1;4.7
72918;PMS7003;68407;55.694;26.994;2023-04-24T06:11:13;5;4.1;3.5
72918;PMS7003;68407;55.694;26.994;2023-04-24T06:16:53;4.3;3.2;2.7
72918;PMS7003;68407;55.694;26.994;2023-04-24T06:21:41;3.6;2.9;2.4
72918;PMS7003;68407;55.694;26.994;2023-04-24T06:26:13;3.3;2.7;2.3
72918;PMS7003;68407;55.694;26.994;2023-04-24T06:31:43;3.1;2.3;1.9
72918;PMS7003;68407;55.694;26.994;2023-04-24T06:36:53;2.3;1.9;1.6
72918;PMS7003;68407;55.694;26.994;2023-04-24T06:41:13;2.7;2;1.6
72918;PMS7003;68407;55.694;26.994;2023-04-24T06:46:41;2.3;1.6;1.4
72918;PMS7003;68407;55.694;26.994;2023-04-24T06:51:41;3.2;2.6;2.2
72918;PMS7003;68407;55.694;26.994;2023-04-24T06:56:11;3.5;3.2;2.5
72918;PMS7003;68407;55.694;26.994;2023-04-24T07:01:39;4;3.3;2.8
72918;PMS7003;68407;55.694;26.994;2023-04-24T07:06:33;3.4;3.2;2.6
72918;PMS7003;68407;55.694;26.994;2023-04-24T07:11:11;2.9;2.7;2.1
72918;PMS7003;68407;55.694;26.994;2023-04-24T07:16:45;3.7;3.1;2.7
72918;PMS7003;68407;55.694;26.994;2023-04-24T07:21:45;3.1;2.7;2.3
72918;PMS7003;68407;55.694;26.994;2023-04-24T07:26:13;3.7;3.3;2.7
72918;PMS7003;68407;55.694;26.994;2023-04-24T07:31:45;3.2;3;2.4
72918;PMS7003;68407;55.694;26.994;2023-04-24T07:36:47;3.4;2.7;2.2
72918;PMS7003;68407;55.694;26.994;2023-04-24T07:41:43;3.9;3;2.5
72918;PMS7003;68407;55.694;26.994;2023-04-24T07:46:35;2.7;2.3;2
72918;PMS7003;68407;55.694;26.994;2023-04-24T07:51:35;3.4;2.7;2.4
72918;PMS7003;68407;55.694;26.994;2023-04-24T07:56:55;3.2;2.5;2.1
72918;PMS7003;68407;55.694;26.994;2023-04-24T08:01:57;2.8;2.1;1.8
72918;PMS7003;68407;55.694;26.994;2023-04-24T08:06:21;2.2;2.1;1.8
72918;PMS7003;68407;55.694;26.994;2023-04-24T08:11:57;2.6;2.3;2.1
72918;PMS7003;68407;55.694;26.994;2023-04-24T08:16:47;2.8;2.6;2.3
72918;PMS7003;68407;55.694;26.994;2023-04-24T08:21:13;3;2.6;2.4
72918;PMS7003;68407;55.694;26.994;2023-04-24T08:26:31;2.5;2.1;1.8
72918;PMS7003;68407;55.694;26.994;2023-04-24T08:31:57;2.8;2.4;2.2
72918;PMS7003;68407;55.694;26.994;2023-04-24T08:36:21;2.6;1.8;1.6
72918;PMS7003;68407;55.694;26.994;2023-04-24T08:41:39;2.2;1.7;1.5
72918;PMS7003;68407;55.694;26.994;2023-04-24T08:46:57;2.9;1.9;1.6
72918;PMS7003;68407;55.694;26.994;2023-04-24T08:51:13;2.1;1.8;1.5
72918;PMS7003;68407;55.694;26.994;2023-04-24T08:56:36;3;2;1.8
72918;PMS7003;68407;55.694;26.994;2023-04-24T09:01:45;2.7;2.2;2
72918;PMS7003;68407;55.694;26.994;2023-04-24T09:06:43;3;1.9;1.6
72918;PMS7003;68407;55.694;26.994;2023-04-24T09:11:47;1.6;1.4;1.2
72918;PMS7003;68407;55.694;26.994;2023-04-24T09:16:35;2.1;1.7;1.4
72918;PMS7003;68407;55.694;26.994;2023-04-24T09:21:57;2.3;1.6;1.4
72918;PMS7003;68407;55.694;26.994;2023-04-24T09:26:43;2.8;2;1.7
72918;PMS7003;68407;55.694;26.994;2023-04-24T09:31:14;2;1.5;1.2
72918;PMS7003;68407;55.694;26.994;2023-04-24T09:36:31;1.9;1.6;1.4
72918;PMS7003;68407;55.694;26.994;2023-04-24T09:41:57;2.5;2.1;1.8
72918;PMS7003;68407;55.694;26.994;2023-04-24T09:46:33;2.6;2.4;2
72918;PMS7003;68407;55.694;26.994;2023-04-24T09:51:15;2.6;2;1.5
72918;PMS7003;68407;55.694;26.994;2023-04-24T09:56:45;1.7;1.4;1.1
72918;PMS7003;68407;55.694;26.994;2023-04-24T10:01:13;1.4;1.2;1
72918;PMS7003;68407;55.694;26.994;2023-04-24T10:06:43;2;1.1;0.9
72918;PMS7003;68407;55.694;26.994;2023-04-24T10:11:13;1.8;1.5;1.3
72918;PMS7003;68407;55.694;26.994;2023-04-24T10:16:33;2.3;1.8;1.6
72918;PMS7003;68407;55.694;26.994;2023-04-24T10:21:49;2.6;2;1.7
72918;PMS7003;68407;55.694;26.994;2023-04-24T10:26:57;2.5;2;1.8
72918;PMS7003;68407;55.694;26.994;2023-04-24T10:31:25;2.8;2;1.6
72918;PMS7003;68407;55.694;26.994;2023-04-24T10:36:31;2.4;1.9;1.7
72918;PMS7003;68407;55.694;26.994;2023-04-24T10:41:49;2.3;1.6;1.4
72918;PMS7003;68407;55.694;26.994;2023-04-24T10:46:43;2.5;1.8;1.5
72918;PMS7003;68407;55.694;26.994;2023-04-24T10:51:42;2.1;2;1.6
72918;PMS7003;68407;55.694;26.994;2023-04-24T10:56:45;2.5;2.1;1.9
72918;PMS7003;68407;55.694;26.994;2023-04-24T11:01:57;1.7;1.7;1.4
72918;PMS7003;68407;55.694;26.994;2023-04-24T11:06:57;2.1;1.6;1.4
72918;PMS7003;68407;55.694;26.994;2023-04-24T11:11:31;2.8;2;1.7
72918;PMS7003;68407;55.694;26.994;2023-04-24T11:16:57;1.9;1.7;1.3
72918;PMS7003;68407;55.694;26.994;2023-04-24T11:21:56;2.4;1.7;1.4
72918;PMS7003;68407;55.694;26.994;2023-04-24T11:26:17;1.9;1.9;1.6
72918;PMS7003;68407;55.694;26.994;2023-04-24T11:31:45;2.3;1.8;1.5
72918;PMS7003;68407;55.694;26.994;2023-04-24T11:36:57;2.4;2.1;1.9
72918;PMS7003;68407;55.694;26.994;2023-04-24T11:41:13;2.2;1.7;1.5
72918;PMS7003;68407;55.694;26.994;2023-04-24T11:46:39;2.2;1.9;1.5
72918;PMS7003;68407;55.694;26.994;2023-04-24T11:51:57;2.8;2.2;1.8
72918;PMS7003;68407;55.694;26.994;2023-04-24T11:56:16;2.9;2.3;1.9
72918;PMS7003;68407;55.694;26.994;2023-04-24T12:01:42;2.8;1.7;1.5
72918;PMS7003;68407;55.694;26.994;2023-04-24T12:06:37;2.4;2;1.8
72918;PMS7003;68407;55.694;26.994;2023-04-24T12:11:14;2;2;1.7
72918;PMS7003;68407;55.694;26.994;2023-04-24T12:16:49;2.1;1.7;1.4
72918;PMS7003;68407;55.694;26.994;2023-04-24T12:21:15;2.2;1.8;1.5
72918;PMS7003;68407;55.694;26.994;2023-04-24T12:26:15;2.3;1.8;1.7
72918;PMS7003;68407;55.694;26.994;2023-04-24T12:31:45;1.8;1.5;1.2
72918;PMS7003;68407;55.694;26.994;2023-04-24T12:37:09;1.7;1.1;1
72918;PMS7003;68407;55.694;26.994;2023-04-24T12:41:25;1.9;1.3;1
72918;PMS7003;68407;55.694;26.994;2023-04-24T12:46:35;2.1;1.9;1.7
72918;PMS7003;68407;55.694;26.994;2023-04-24T12:51:49;1.9;1.7;1.5
72918;PMS7003;68407;55.694;26.994;2023-04-24T12:56:59;1.7;1.2;1.1
72918;PMS7003;68407;55.694;26.994;2023-04-24T13:01:35;1.9;1.4;1.2
72918;PMS7003;68407;55.694;26.994;2023-04-24T13:06:13;2.3;1.9;1.6
72918;PMS7003;68407;55.694;26.994;2023-04-24T13:11:59;1.7;1.5;1.3
72918;PMS7003;68407;55.694;26.994;2023-04-24T13:16:25;2.4;1.8;1.3
72918;PMS7003;68407;55.694;26.994;2023-04-24T13:21:13;1.9;1.5;1.3
72918;PMS7003;68407;55.694;26.994;2023-04-24T13:26:29;1.7;1.2;0.9
72918;PMS7003;68407;55.694;26.994;2023-04-24T13:31:57;5.7;4.9;4.1
72918;PMS7003;68407;55.694;26.994;2023-04-24T13:36:13;2.8;2;1.7
72918;PMS7003;68407;55.694;26.994;2023-04-24T13:41:57;2.7;2.3;2
72918;PMS7003;68407;55.694;26.994;2023-04-24T13:46:55;2.6;2.2;1.9
72918;PMS7003;68407;55.694;26.994;2023-04-24T13:51:47;2.4;2.1;1.9
72918;PMS7003;68407;55.694;26.994;2023-04-24T13:56:13;2.2;1.5;1.3
72918;PMS7003;68407;55.694;26.994;2023-04-24T14:01:45;2.4;2.1;1.7
72918;PMS7003;68407;55.694;26.994;2023-04-24T14:06:41;2.1;2.1;1.8
72918;PMS7003;68407;55.694;26.994;2023-04-24T14:11:47;3;2;1.8
72918;PMS7003;68407;55.694;26.994;2023-04-24T14:16:23;2.7;2.1;1.7
72918;PMS7003;68407;55.694;26.994;2023-04-24T14:21:57;2.5;2.1;1.8
72918;PMS7003;68407;55.694;26.994;2023-04-24T14:26:15;2.4;1.9;1.7
72918;PMS7003;68407;55.694;26.994;2023-04-24T14:31:13;7.5;7;5.7
72918;PMS7003;68407;55.694;26.994;2023-04-24T14:36:33;26.6;21.9;16.2
72918;PMS7003;68407;55.694;26.994;2023-04-24T14:41:59;20.6;18.2;14.1
72918;PMS7003;68407;55.694;26.994;2023-04-24T14:46:23;10.6;9.8;8.2
72918;PMS7003;68407;55.694;26.994;2023-04-24T14:51:15;25.8;22.9;16.8
72918;PMS7003;68407;55.694;26.994;2023-04-24T14:56:45;33.8;29.1;20.8
72918;PMS7003;68407;55.694;26.994;2023-04-24T15:01:13;22.3;18.6;13.1
72918;PMS7003;68407;55.694;26.994;2023-04-24T15:06:43;13.2;12.1;9.5
72918;PMS7003;68407;55.694;26.994;2023-04-24T15:11:37;8.5;7.6;6.2
72918;PMS7003;68407;55.694;26.994;2023-04-24T15:16:43;21.1;17.3;12.9
72918;PMS7003;68407;55.694;26.994;2023-04-24T15:21:49;14;11.6;9
72918;PMS7003;68407;55.694;26.994;2023-04-24T15:26:55;8.9;7.4;6
72918;PMS7003;68407;55.694;26.994;2023-04-24T15:31:13;45.1;38.6;26
72918;PMS7003;68407;55.694;26.994;2023-04-24T15:36:45;27.4;23.1;16.3
72918;PMS7003;68407;55.694;26.994;2023-04-24T15:41:47;93;80.5;50.8
72918;PMS7003;68407;55.694;26.994;2023-04-24T15:46:47;115.1;99.4;61.7
72918;PMS7003;68407;55.694;26.994;2023-04-24T15:51:25;67.3;55.8;35.8
72918;PMS7003;68407;55.694;26.994;2023-04-24T15:56:23;33.6;27;18.9
72918;PMS7003;68407;55.694;26.994;2023-04-24T16:01:59;21;16.6;12.1
72918;PMS7003;68407;55.694;26.994;2023-04-24T16:06:59;29.4;23.9;16.7
72918;PMS7003;68407;55.694;26.994;2023-04-24T16:11:59;38.9;31.4;20.9
72918;PMS7003;68407;55.694;26.994;2023-04-24T16:16:57;31.5;26;17.7
72918;PMS7003;68407;55.694;26.994;2023-04-24T16:21:49;25.1;20.8;14.4
72918;PMS7003;68407;55.694;26.994;2023-04-24T16:26:13;18.3;15.8;11.5
72918;PMS7003;68407;55.694;26.994;2023-04-24T16:31:29;6.7;5.6;4.7
72918;PMS7003;68407;55.694;26.994;2023-04-24T16:36:59;8.7;7.5;6.1
72918;PMS7003;68407;55.694;26.994;2023-04-24T16:41:13;11.2;10;8
72918;PMS7003;68407;55.694;26.994;2023-04-24T16:46:39;6.2;4.8;3.4
72918;PMS7003;68407;55.694;26.994;2023-04-24T16:51:57;11;9.6;6.9
72918;PMS7003;68407;55.694;26.994;2023-04-24T16:56:14;11.8;9.7;7.5
72918;PMS7003;68407;55.694;26.994;2023-04-24T17:01:35;29.6;23.6;15.9
72918;PMS7003;68407;55.694;26.994;2023-04-24T17:06:33;8.9;7.1;5.1
72918;PMS7003;68407;55.694;26.994;2023-04-24T17:11:43;6.5;5.2;4.4
72918;PMS7003;68407;55.694;26.994;2023-04-24T17:16:49;9;8.1;6.1
72918;PMS7003;68407;55.694;26.994;2023-04-24T17:21:37;9.3;7.3;5.8
72918;PMS7003;68407;55.694;26.994;2023-04-24T17:26:57;13.2;11;8.7
72918;PMS7003;68407;55.694;26.994;2023-04-24T17:31:25;21.9;18.6;13.3
72918;PMS7003;68407;55.694;26.994;2023-04-24T17:36:25;23.5;19.6;13.8
72918;PMS7003;68407;55.694;26.994;2023-04-24T17:41:13;32.9;26.9;18.3
72918;PMS7003;68407;55.694;26.994;2023-04-24T17:46:59;28.1;22.9;15.5
72918;PMS7003;68407;55.694;26.994;2023-04-24T17:51:35;27.2;20.7;14
72918;PMS7003;68407;55.694;26.994;2023-04-24T17:56:47;12;10.6;8.4
72918;PMS7003;68407;55.694;26.994;2023-04-24T18:01:47;10;8.7;6.7
72918;PMS7003;68407;55.694;26.994;2023-04-24T18:06:35;10;8.3;6.7
72918;PMS7003;68407;55.694;26.994;2023-04-24T18:11:59;7.5;6.4;5.1
72918;PMS7003;68407;55.694;26.994;2023-04-24T18:16:37;6.2;5.3;4.3
72918;PMS7003;68407;55.694;26.994;2023-04-24T18:21:25;9.1;8;6.6
72918;PMS7003;68407;55.694;26.994;2023-04-24T18:26:49;15.6;13.7;10.4
72918;PMS7003;68407;55.694;26.994;2023-04-24T18:31:57;8.8;7.6;6.4
72918;PMS7003;68407;55.694;26.994;2023-04-24T18:36:23;8.2;7.5;6.3
72918;PMS7003;68407;55.694;26.994;2023-04-24T18:41:45;10.9;9.2;7.6
72918;PMS7003;68407;55.694;26.994;2023-04-24T18:46:49;7.5;6.2;5.2
72918;PMS7003;68407;55.694;26.994;2023-04-24T18:51:45;6.9;6;4.7
72918;PMS7003;68407;55.694;26.994;2023-04-24T18:56:35;9.2;8.1;6.9
72918;PMS7003;68407;55.694;26.994;2023-04-24T19:01:33;9.5;8.4;6.9
72918;PMS7003;68407;55.694;26.994;2023-04-24T19:06:57;7.7;7.4;6.1
72918;PMS7003;68407;55.694;26.994;2023-04-24T19:11:57;10.1;9.2;7.6
72918;PMS7003;68407;55.694;26.994;2023-04-24T19:16:13;8.9;7.3;6.2
72918;PMS7003;68407;55.694;26.994;2023-04-24T19:21:57;10.9;9.3;7.5
72918;PMS7003;68407;55.694;26.994;2023-04-24T19:26:49;9;7.5;6.4
72918;PMS7003;68407;55.694;26.994;2023-04-24T19:31:57;9.8;8.6;7.1
72918;PMS7003;68407;55.694;26.994;2023-04-24T19:36:33;11.4;9.8;7.5
72918;PMS7003;68407;55.694;26.994;2023-04-24T19:41:57;20;16;11.6
72918;PMS7003;68407;55.694;26.994;2023-04-24T19:46:13;15;12.6;9.6
72918;PMS7003;68407;55.694;26.994;2023-04-24T19:51:43;18.8;16.6;12.2
72918;PMS7003;68407;55.694;26.994;2023-04-24T19:56:57;16;13.6;11
72918;PMS7003;68407;55.694;26.994;2023-04-24T20:01:13;18.4;16.4;12.3
72918;PMS7003;68407;55.694;26.994;2023-04-24T20:06:35;10.7;9.1;7.5
72918;PMS7003;68407;55.694;26.994;2023-04-24T20:11:37;5.6;4.8;3.9
72918;PMS7003;68407;55.694;26.994;2023-04-24T20:16:21;3.7;3.3;2.9
72918;PMS7003;68407;55.694;26.994;2023-04-24T20:21:49;3.8;3.4;2.9
72918;PMS7003;68407;55.694;26.994;2023-04-24T20:26:37;4.8;4;3.5
72918;PMS7003;68407;55.694;26.994;2023-04-24T20:31:31;5.1;4.2;3.4
72918;PMS7003;68407;55.694;26.994;2023-04-24T20:36:35;4;3.1;2.6
72918;PMS7003;68407;55.694;26.994;2023-04-24T20:41:57;4.1;3.3;2.8
72918;PMS7003;68407;55.694;26.994;2023-04-24T20:46:13;3.5;3;2.6
72918;PMS7003;68407;55.694;26.994;2023-04-24T20:51:57;3.5;2.8;2.3
72918;PMS7003;68407;55.694;26.994;2023-04-24T20:56:49;3.1;2.7;2.2
72918;PMS7003;68407;55.694;26.994;2023-04-24T21:01:43;3.3;2.6;2.2
72918;PMS7003;68407;55.694;26.994;2023-04-24T21:06:45;2.8;2.5;2.2
72918;PMS7003;68407;55.694;26.994;2023-04-24T21:11:33;3.4;2.8;2.4
72918;PMS7003;68407;55.694;26.994;2023-04-24T21:16:43;3.1;2.8;2.3
72918;PMS7003;68407;55.694;26.994;2023-04-24T21:21:37;4.6;3.2;2.7
72918;PMS7003;68407;55.694;26.994;2023-04-24T21:26:25;4.2;3.3;2.8
72918;PMS7003;68407;55.694;26.994;2023-04-24T21:31:49;7.5;6.4;5.2
72918;PMS7003;68407;55.694;26.994;2023-04-24T21:36:59;7.9;7;5.6
72918;PMS7003;68407;55.694;26.994;2023-04-24T21:41:13;7.5;6.2;5.3
72918;PMS7003;68407;55.694;26.994;2023-04-24T21:46:45;9.2;7.9;6.5
72918;PMS7003;68407;55.694;26.994;2023-04-24T21:51:51;11.1;9.7;7.8
72918;PMS7003;68407;55.694;26.994;2023-04-24T21:56:49;11.2;9.7;8.1
72918;PMS7003;68407;55.694;26.994;2023-04-24T22:01:25;9.6;8.2;6.8
72918;PMS7003;68407;55.694;26.994;2023-04-24T22:06:47;11.2;9.5;7.7
72918;PMS7003;68407;55.694;26.994;2023-04-24T22:11:59;10.4;9.4;7.5
72918;PMS7003;68407;55.694;26.994;2023-04-24T22:16:59;8.3;6.9;5.5
72918;PMS7003;68407;55.694;26.994;2023-04-24T22:21:13;7.8;6.7;5.4
72918;PMS7003;68407;55.694;26.994;2023-04-24T22:26:59;8.8;7.5;6.1
72918;PMS7003;68407;55.694;26.994;2023-04-24T22:31:51;8.5;7.5;6.2
72918;PMS7003;68407;55.694;26.994;2023-04-24T22:36:25;8.2;7.5;6.3
72918;PMS7003;68407;55.694;26.994;2023-04-24T22:41:25;8.2;6.6;5.5
72918;PMS7003;68407;55.694;26.994;2023-04-24T22:46:59;8.1;6.9;5.9
72918;PMS7003;68407;55.694;26.994;2023-04-24T22:51:13;8;6.8;5.8
72918;PMS7003;68407;55.694;26.994;2023-04-24T22:56:47;8;6.3;5.4
72918;PMS7003;68407;55.694;26.994;2023-04-24T23:01:59;6;5;4.3
72918;PMS7003;68407;55.694;26.994;2023-04-24T23:06:23;6.4;5.4;4.4
72918;PMS7003;68407;55.694;26.994;2023-04-24T23:11:25;5.4;4.8;4.1
72918;PMS7003;68407;55.694;26.994;2023-04-24T23:16:27;6.9;5.5;4.6
72918;PMS7003;68407;55.694;26.994;2023-04-24T23:21:13;6.9;5.2;4.4
72918;PMS7003;68407;55.694;26.994;2023-04-24T23:26:51;5.4;4.7;3.9
72918;PMS7003;68407;55.694;26.994;2023-04-24T23:31:39;5.9;4.9;4.2
72918;PMS7003;68407;55.694;26.994;2023-04-24T23:36:31;6;4.7;3.9
72918;PMS7003;68407;55.694;26.994;2023-04-24T23:41:43;5.5;4.4;3.7
72918;PMS7003;68407;55.694;26.994;2023-04-24T23:46:59;5.6;4.5;3.7
72918;PMS7003;68407;55.694;26.994;2023-04-24T23:51:31;5.3;4.5;3.7
72918;PMS7003;68407;55.694;26.994;2023-04-24T23:56:13;5.2;4.3;3.6
